sensor_id;sensor_type;location;lat;lon;timestamp;pressure;altitude;pressure_sealevel;temperature;humidity
65157;BME280;52745;49.794;18.258;2023-05-25T00:01:35;-16218.63;;;10.54;100.00
65157;BME280;52745;49.794;18.258;2023-05-25T00:04:03;-16217.13;;;10.48;100.00
65157;BME280;52745;49.794;18.258;2023-05-25T00:06:32;-16216.31;;;10.45;100.00
65157;BME280;52745;49.794;18.258;2023-05-25T00:09:02;-16215.34;;;10.42;100.00
65157;BME280;52745;49.794;18.258;2023-05-25T00:11:29;-16214.94;;;10.40;100.00
65157;BME280;52745;49.794;18.258;2023-05-25T00:13:56;-16212.34;;;10.30;100.00
65157;BME280;52745;49.794;18.258;2023-05-25T00:16:23;-16210.97;;;10.25;100.00
65157;BME280;52745;49.794;18.258;2023-05-25T00:18:49;-16209.47;;;10.20;100.00
65157;BME280;52745;49.794;18.258;2023-05-25T00:21:18;-16208.53;;;10.16;100.00
65157;BME280;52745;49.794;18.258;2023-05-25T00:23:45;-16206.88;;;10.10;100.00
65157;BME280;52745;49.794;18.258;2023-05-25T00:26:12;-16206.22;;;10.07;100.00
65157;BME280;52745;49.794;18.258;2023-05-25T00:28:38;-16205.13;;;10.03;100.00
65157;BME280;52745;49.794;18.258;2023-05-25T00:31:05;-16205.38;;;10.04;100.00
65157;BME280;52745;49.794;18.258;2023-05-25T00:33:32;-16204.84;;;10.02;100.00
65157;BME280;52745;49.794;18.258;2023-05-25T00:35:59;-16203.88;;;9.99;100.00
65157;BME280;52745;49.794;18.258;2023-05-25T00:38:25;-16202.94;;;9.95;100.00
65157;BME280;52745;49.794;18.258;2023-05-25T00:40:55;-16201.69;;;9.90;100.00
65157;BME280;52745;49.794;18.258;2023-05-25T00:43:22;-16201.28;;;9.89;100.00
65157;BME280;52745;49.794;18.258;2023-05-25T00:45:49;-16200.19;;;9.85;100.00
65157;BME280;52745;49.794;18.258;2023-05-25T00:48:17;-16200.19;;;9.85;100.00
65157;BME280;52745;49.794;18.258;2023-05-25T00:50:44;-16199.09;;;9.81;100.00
65157;BME280;52745;49.794;18.258;2023-05-25T00:53:12;-16197.88;;;9.76;100.00
65157;BME280;52745;49.794;18.258;2023-05-25T00:56:01;-16198.84;;;9.80;100.00
65157;BME280;52745;49.794;18.258;2023-05-25T00:58:34;-16200.59;;;9.86;100.00
65157;BME280;52745;49.794;18.258;2023-05-25T01:01:03;-16201.84;;;9.91;100.00
65157;BME280;52745;49.794;18.258;2023-05-25T01:03:34;-16203.34;;;9.97;100.00
65157;BME280;52745;49.794;18.258;2023-05-25T01:06:06;-16203.88;;;9.99;100.00
65157;BME280;52745;49.794;18.258;2023-05-25T01:08:35;-16205.66;;;10.05;100.00
65157;BME280;52745;49.794;18.258;2023-05-25T01:11:05;-16207.28;;;10.11;100.00
65157;BME280;52745;49.794;18.258;2023-05-25T01:13:33;-16208.94;;;10.18;100.00
65157;BME280;52745;49.794;18.258;2023-05-25T01:16:05;-16210.16;;;10.22;100.00
65157;BME280;52745;49.794;18.258;2023-05-25T01:18:31;-16211.94;;;10.29;100.00
65157;BME280;52745;49.794;18.258;2023-05-25T01:21:31;-16213.03;;;10.33;100.00
65157;BME280;52745;49.794;18.258;2023-05-25T01:26:40;-16211.38;;;10.27;100.00
65157;BME280;52745;49.794;18.258;2023-05-25T01:29:08;-16211.13;;;10.26;100.00
65157;BME280;52745;49.794;18.258;2023-05-25T01:31:38;-16212.47;;;10.31;100.00
65157;BME280;52745;49.794;18.258;2023-05-25T01:34:05;-16211.38;;;10.27;100.00
65157;BME280;52745;49.794;18.258;2023-05-25T01:36:35;-16213.72;;;10.35;100.00
65157;BME280;52745;49.794;18.258;2023-05-25T01:39:05;-16214.38;;;10.38;100.00
65157;BME280;52745;49.794;18.258;2023-05-25T01:41:33;-16212.63;;;10.31;100.00
65157;BME280;52745;49.794;18.258;2023-05-25T01:43:59;-16214.25;;;10.38;100.00
65157;BME280;52745;49.794;18.258;2023-05-25T01:46:38;-16213.16;;;10.33;100.00
65157;BME280;52745;49.794;18.258;2023-05-25T01:49:14;-16212.06;;;10.29;100.00
65157;BME280;52745;49.794;18.258;2023-05-25T01:52:09;-16212.47;;;10.31;100.00
65157;BME280;52745;49.794;18.258;2023-05-25T01:54:44;-16210.56;;;10.24;100.00
65157;BME280;52745;49.794;18.258;2023-05-25T01:57:14;-16210.69;;;10.24;100.00
65157;BME280;52745;49.794;18.258;2023-05-25T01:59:46;-16212.06;;;10.29;100.00
65157;BME280;52745;49.794;18.258;2023-05-25T02:02:17;-16210.97;;;10.25;100.00
65157;BME280;52745;49.794;18.258;2023-05-25T02:04:45;-16208.94;;;10.18;100.00
65157;BME280;52745;49.794;18.258;2023-05-25T02:07:13;-16208.78;;;10.17;100.00
65157;BME280;52745;49.794;18.258;2023-05-25T02:09:39;-16207.84;;;10.13;100.00
65157;BME280;52745;49.794;18.258;2023-05-25T02:12:06;-16208.38;;;10.15;100.00
65157;BME280;52745;49.794;18.258;2023-05-25T02:14:33;-16209.47;;;10.20;100.00
65157;BME280;52745;49.794;18.258;2023-05-25T02:17:00;-16210.56;;;10.24;100.00
65157;BME280;52745;49.794;18.258;2023-05-25T02:19:27;-16211.13;;;10.26;100.00
65157;BME280;52745;49.794;18.258;2023-05-25T02:21:56;-16209.75;;;10.21;100.00
65157;BME280;52745;49.794;18.258;2023-05-25T02:24:23;-16210.28;;;10.23;100.00
65157;BME280;52745;49.794;18.258;2023-05-25T02:26:50;-16209.22;;;10.19;100.00
65157;BME280;52745;49.794;18.258;2023-05-25T02:29:17;-16210.56;;;10.24;100.00
65157;BME280;52745;49.794;18.258;2023-05-25T02:31:44;-16212.34;;;10.30;100.00
65157;BME280;52745;49.794;18.258;2023-05-25T02:34:11;-16209.75;;;10.21;100.00
65157;BME280;52745;49.794;18.258;2023-05-25T02:36:39;-16211.38;;;10.27;100.00
65157;BME280;52745;49.794;18.258;2023-05-25T02:39:09;-16211.66;;;10.28;100.00
65157;BME280;52745;49.794;18.258;2023-05-25T02:41:38;-16210.56;;;10.24;100.00
65157;BME280;52745;49.794;18.258;2023-05-25T02:44:06;-16211.94;;;10.29;100.00
65157;BME280;52745;49.794;18.258;2023-05-25T02:46:33;-16212.34;;;10.30;100.00
65157;BME280;52745;49.794;18.258;2023-05-25T02:49:00;-16210.97;;;10.25;100.00
65157;BME280;52745;49.794;18.258;2023-05-25T02:51:27;-16211.38;;;10.27;100.00
65157;BME280;52745;49.794;18.258;2023-05-25T02:53:56;-16210.97;;;10.25;100.00
65157;BME280;52745;49.794;18.258;2023-05-25T02:56:23;-16211.66;;;10.28;100.00
65157;BME280;52745;49.794;18.258;2023-05-25T02:58:50;-16211.94;;;10.29;100.00
65157;BME280;52745;49.794;18.258;2023-05-25T03:01:24;-16212.06;;;10.29;100.00
65157;BME280;52745;49.794;18.258;2023-05-25T03:03:56;-16212.06;;;10.29;100.00
65157;BME280;52745;49.794;18.258;2023-05-25T03:06:25;-16212.22;;;10.30;100.00
65157;BME280;52745;49.794;18.258;2023-05-25T03:08:56;-16214.25;;;10.38;100.00
65157;BME280;52745;49.794;18.258;2023-05-25T03:11:23;-16214.53;;;10.39;100.00
65157;BME280;52745;49.794;18.258;2023-05-25T03:13:51;-16216.84;;;10.47;100.00
65157;BME280;52745;49.794;18.258;2023-05-25T03:16:19;-16216.72;;;10.47;100.00
65157;BME280;52745;49.794;18.258;2023-05-25T03:18:48;-16214.25;;;10.38;100.00
65157;BME280;52745;49.794;18.258;2023-05-25T03:21:15;-16211.53;;;10.27;100.00
65157;BME280;52745;49.794;18.258;2023-05-25T03:23:43;-16210.03;;;10.22;100.00
65157;BME280;52745;49.794;18.258;2023-05-25T03:26:09;-16209.75;;;10.21;100.00
65157;BME280;52745;49.794;18.258;2023-05-25T03:28:37;-16209.59;;;10.20;100.00
65157;BME280;52745;49.794;18.258;2023-05-25T03:31:05;-16209.59;;;10.20;100.00
65157;BME280;52745;49.794;18.258;2023-05-25T03:33:31;-16208.13;;;10.14;100.00
65157;BME280;52745;49.794;18.258;2023-05-25T03:35:59;-16209.47;;;10.20;100.00
65157;BME280;52745;49.794;18.258;2023-05-25T03:38:26;-16210.16;;;10.22;100.00
65157;BME280;52745;49.794;18.258;2023-05-25T03:40:53;-16209.47;;;10.20;100.00
65157;BME280;52745;49.794;18.258;2023-05-25T03:43:20;-16210.84;;;10.25;100.00
65157;BME280;52745;49.794;18.258;2023-05-25T03:45:48;-16212.47;;;10.31;100.00
65157;BME280;52745;49.794;18.258;2023-05-25T03:48:16;-16213.56;;;10.35;100.00
65157;BME280;52745;49.794;18.258;2023-05-25T03:50:42;-16212.88;;;10.32;100.00
65157;BME280;52745;49.794;18.258;2023-05-25T03:53:09;-16213.72;;;10.35;100.00
65157;BME280;52745;49.794;18.258;2023-05-25T03:55:36;-16216.56;;;10.46;100.00
65157;BME280;52745;49.794;18.258;2023-05-25T03:58:03;-16217.53;;;10.50;100.00
65157;BME280;52745;49.794;18.258;2023-05-25T04:00:30;-16216.97;;;10.48;100.00
65157;BME280;52745;49.794;18.258;2023-05-25T04:02:56;-16218.22;;;10.52;100.00
65157;BME280;52745;49.794;18.258;2023-05-25T04:05:24;-16215.34;;;10.42;100.00
65157;BME280;52745;49.794;18.258;2023-05-25T04:07:51;-16214.94;;;10.40;100.00
65157;BME280;52745;49.794;18.258;2023-05-25T04:10:18;-16215.63;;;10.43;100.00
65157;BME280;52745;49.794;18.258;2023-05-25T04:12:45;-16213.56;;;10.35;100.00
65157;BME280;52745;49.794;18.258;2023-05-25T04:15:12;-16214.13;;;10.37;100.00
65157;BME280;52745;49.794;18.258;2023-05-25T04:17:52;-16215.75;;;10.43;100.00
65157;BME280;52745;49.794;18.258;2023-05-25T04:20:20;-16218.75;;;10.54;100.00
65157;BME280;52745;49.794;18.258;2023-05-25T04:22:47;-16217.13;;;10.48;100.00
65157;BME280;52745;49.794;18.258;2023-05-25T04:25:15;-16215.22;;;10.41;100.00
65157;BME280;52745;49.794;18.258;2023-05-25T04:27:42;-16212.88;;;10.32;100.00
65157;BME280;52745;49.794;18.258;2023-05-25T04:30:12;-16212.88;;;10.32;100.00
65157;BME280;52745;49.794;18.258;2023-05-25T04:32:58;-16211.94;;;10.29;100.00
65157;BME280;52745;49.794;18.258;2023-05-25T04:35:34;-16212.47;;;10.31;100.00
65157;BME280;52745;49.794;18.258;2023-05-25T04:38:02;-16212.75;;;10.32;100.00
65157;BME280;52745;49.794;18.258;2023-05-25T04:40:30;-16213.56;;;10.35;100.00
65157;BME280;52745;49.794;18.258;2023-05-25T04:42:58;-16214.78;;;10.40;100.00
65157;BME280;52745;49.794;18.258;2023-05-25T04:45:26;-16217.78;;;10.51;100.00
65157;BME280;52745;49.794;18.258;2023-05-25T04:47:54;-16218.34;;;10.53;100.00
65157;BME280;52745;49.794;18.258;2023-05-25T04:50:23;-16219.84;;;10.59;100.00
65157;BME280;52745;49.794;18.258;2023-05-25T04:52:51;-16217.78;;;10.51;100.00
65157;BME280;52745;49.794;18.258;2023-05-25T04:55:18;-16219.03;;;10.55;100.00
65157;BME280;52745;49.794;18.258;2023-05-25T04:57:44;-16216.16;;;10.45;100.00
65157;BME280;52745;49.794;18.258;2023-05-25T05:00:12;-16214.38;;;10.38;100.00
65157;BME280;52745;49.794;18.258;2023-05-25T05:02:40;-16214.13;;;10.37;100.00
65157;BME280;52745;49.794;18.258;2023-05-25T05:05:08;-16211.94;;;10.29;100.00
65157;BME280;52745;49.794;18.258;2023-05-25T05:07:34;-16216.72;;;10.47;100.00
65157;BME280;52745;49.794;18.258;2023-05-25T05:10:03;-16216.56;;;10.46;100.00
65157;BME280;52745;49.794;18.258;2023-05-25T05:12:31;-16219.16;;;10.56;100.00
65157;BME280;52745;49.794;18.258;2023-05-25T05:15:00;-16224.63;;;10.76;100.00
65157;BME280;52745;49.794;18.258;2023-05-25T05:17:27;-16220.94;;;10.63;100.00
65157;BME280;52745;49.794;18.258;2023-05-25T05:19:56;-16219.31;;;10.56;100.00
65157;BME280;52745;49.794;18.258;2023-05-25T05:22:23;-16218.34;;;10.53;100.00
65157;BME280;52745;49.794;18.258;2023-05-25T05:24:50;-16213.03;;;10.33;100.00
65157;BME280;52745;49.794;18.258;2023-05-25T05:27:24;-16215.63;;;10.43;100.00
65157;BME280;52745;49.794;18.258;2023-05-25T05:30:03;-16221.06;;;10.63;100.00
65157;BME280;52745;49.794;18.258;2023-05-25T05:32:31;-16223.38;;;10.72;100.00
65157;BME280;52745;49.794;18.258;2023-05-25T05:34:59;-16224.22;;;10.75;100.00
65157;BME280;52745;49.794;18.258;2023-05-25T05:37:44;-16232.25;;;11.05;100.00
65157;BME280;52745;49.794;18.258;2023-05-25T05:40:12;-16228.03;;;10.89;100.00
65157;BME280;52745;49.794;18.258;2023-05-25T05:42:41;-16223.94;;;10.74;100.00
65157;BME280;52745;49.794;18.258;2023-05-25T05:45:09;-16221.06;;;10.63;100.00
65157;BME280;52745;49.794;18.258;2023-05-25T05:47:37;-16216.56;;;10.46;100.00
65157;BME280;52745;49.794;18.258;2023-05-25T05:50:04;-16216.44;;;10.46;100.00
65157;BME280;52745;49.794;18.258;2023-05-25T05:52:33;-16216.31;;;10.45;100.00
65157;BME280;52745;49.794;18.258;2023-05-25T05:55:00;-16215.63;;;10.43;100.00
65157;BME280;52745;49.794;18.258;2023-05-25T05:57:27;-16217.25;;;10.49;100.00
65157;BME280;52745;49.794;18.258;2023-05-25T05:59:54;-16220.66;;;10.62;100.00
65157;BME280;52745;49.794;18.258;2023-05-25T06:02:21;-16219.69;;;10.58;100.00
65157;BME280;52745;49.794;18.258;2023-05-25T06:04:48;-16220.94;;;10.63;100.00
65157;BME280;52745;49.794;18.258;2023-05-25T06:07:15;-16222.28;;;10.68;100.00
65157;BME280;52745;49.794;18.258;2023-05-25T06:09:42;-16221.06;;;10.63;100.00
65157;BME280;52745;49.794;18.258;2023-05-25T06:12:09;-16221.47;;;10.65;100.00
65157;BME280;52745;49.794;18.258;2023-05-25T06:14:36;-16225.84;;;10.81;100.00
65157;BME280;52745;49.794;18.258;2023-05-25T06:17:04;-16229.25;;;10.94;100.00
65157;BME280;52745;49.794;18.258;2023-05-25T06:19:31;-16232.09;;;11.05;100.00
65157;BME280;52745;49.794;18.258;2023-05-25T06:21:57;-16236.88;;;11.23;100.00
65157;BME280;52745;49.794;18.258;2023-05-25T06:24:25;-16241.09;;;11.38;100.00
65157;BME280;52745;49.794;18.258;2023-05-25T06:26:51;-16240.56;;;11.36;100.00
65157;BME280;52745;49.794;18.258;2023-05-25T06:29:19;-16241.38;;;11.39;99.78
65157;BME280;52745;49.794;18.258;2023-05-25T06:31:46;-16240.97;;;11.38;99.17
65157;BME280;52745;49.794;18.258;2023-05-25T06:34:13;-16242.75;;;11.45;98.31
65157;BME280;52745;49.794;18.258;2023-05-25T06:36:40;-16241.66;;;11.41;97.30
65157;BME280;52745;49.794;18.258;2023-05-25T06:39:07;-16246.00;;;11.57;98.01
65157;BME280;52745;49.794;18.258;2023-05-25T06:41:33;-16249.00;;;11.68;98.07
65157;BME280;52745;49.794;18.258;2023-05-25T06:44:00;-16251.19;;;11.76;96.86
65157;BME280;52745;49.794;18.258;2023-05-25T06:46:31;-16247.09;;;11.61;96.15
65157;BME280;52745;49.794;18.258;2023-05-25T06:49:00;-16243.81;;;11.49;97.50
65157;BME280;52745;49.794;18.258;2023-05-25T06:51:27;-16245.06;;;11.53;97.34
65157;BME280;52745;49.794;18.258;2023-05-25T06:53:54;-16244.25;;;11.50;97.61
65157;BME280;52745;49.794;18.258;2023-05-25T06:56:22;-16243.28;;;11.47;98.20
65157;BME280;52745;49.794;18.258;2023-05-25T06:58:49;-16241.66;;;11.41;97.98
65157;BME280;52745;49.794;18.258;2023-05-25T07:01:16;-16239.34;;;11.32;98.78
65157;BME280;52745;49.794;18.258;2023-05-25T07:03:43;-16238.38;;;11.28;99.31
65157;BME280;52745;49.794;18.258;2023-05-25T07:06:09;-16238.25;;;11.28;99.43
65157;BME280;52745;49.794;18.258;2023-05-25T07:08:37;-16235.13;;;11.16;99.44
65157;BME280;52745;49.794;18.258;2023-05-25T07:11:04;-16232.94;;;11.08;100.00
65157;BME280;52745;49.794;18.258;2023-05-25T07:13:31;-16233.59;;;11.10;99.49
65157;BME280;52745;49.794;18.258;2023-05-25T07:15:57;-16231.97;;;11.04;99.66
65157;BME280;52745;49.794;18.258;2023-05-25T07:18:24;-16231.56;;;11.03;99.82
65157;BME280;52745;49.794;18.258;2023-05-25T07:20:51;-16231.03;;;11.01;100.00
65157;BME280;52745;49.794;18.258;2023-05-25T07:23:19;-16236.47;;;11.21;100.00
65157;BME280;52745;49.794;18.258;2023-05-25T07:25:46;-16238.25;;;11.28;96.71
65157;BME280;52745;49.794;18.258;2023-05-25T07:28:12;-16237.44;;;11.25;96.99
65157;BME280;52745;49.794;18.258;2023-05-25T07:30:39;-16239.19;;;11.31;96.93
65157;BME280;52745;49.794;18.258;2023-05-25T07:33:07;-16243.28;;;11.47;94.98
65157;BME280;52745;49.794;18.258;2023-05-25T07:35:33;-16246.56;;;11.59;93.73
65157;BME280;52745;49.794;18.258;2023-05-25T07:38:02;-16252.41;;;11.81;93.45
65157;BME280;52745;49.794;18.258;2023-05-25T07:40:32;-16255.56;;;11.93;92.39
65157;BME280;52745;49.794;18.258;2023-05-25T07:42:59;-16254.88;;;11.90;91.37
65157;BME280;52745;49.794;18.258;2023-05-25T07:45:25;-16252.81;;;11.83;90.85
65157;BME280;52745;49.794;18.258;2023-05-25T07:47:52;-16252.69;;;11.82;90.91
65157;BME280;52745;49.794;18.258;2023-05-25T07:50:19;-16253.91;;;11.87;91.33
65157;BME280;52745;49.794;18.258;2023-05-25T07:52:46;-16255.56;;;11.93;91.33
65157;BME280;52745;49.794;18.258;2023-05-25T07:55:12;-16254.59;;;11.89;91.02
65157;BME280;52745;49.794;18.258;2023-05-25T07:57:39;-16259.63;;;12.08;92.12
65157;BME280;52745;49.794;18.258;2023-05-25T08:00:08;-16259.38;;;12.07;89.88
65157;BME280;52745;49.794;18.258;2023-05-25T08:02:43;-16252.28;;;11.80;90.89
65157;BME280;52745;49.794;18.258;2023-05-25T08:05:09;-16250.78;;;11.75;91.48
65157;BME280;52745;49.794;18.258;2023-05-25T08:07:36;-16253.91;;;11.87;91.19
65157;BME280;52745;49.794;18.258;2023-05-25T08:10:03;-16255.97;;;11.94;91.60
65157;BME280;52745;49.794;18.258;2023-05-25T08:12:31;-16255.56;;;11.93;91.53
65157;BME280;52745;49.794;18.258;2023-05-25T08:14:58;-16260.72;;;12.12;91.56
65157;BME280;52745;49.794;18.258;2023-05-25T08:17:25;-16260.72;;;12.12;91.48
65157;BME280;52745;49.794;18.258;2023-05-25T08:19:53;-16263.72;;;12.24;89.30
65157;BME280;52745;49.794;18.258;2023-05-25T08:22:21;-16266.59;;;12.34;89.65
65157;BME280;52745;49.794;18.258;2023-05-25T08:24:48;-16267.81;;;12.39;89.79
65157;BME280;52745;49.794;18.258;2023-05-25T08:27:15;-16267.53;;;12.38;90.29
65157;BME280;52745;49.794;18.258;2023-05-25T08:29:41;-16268.22;;;12.40;89.91
65157;BME280;52745;49.794;18.258;2023-05-25T08:32:08;-16269.16;;;12.44;89.98
65157;BME280;52745;49.794;18.258;2023-05-25T08:34:35;-16265.63;;;12.31;89.95
65157;BME280;52745;49.794;18.258;2023-05-25T08:37:02;-16260.47;;;12.11;90.53
65157;BME280;52745;49.794;18.258;2023-05-25T08:39:28;-16261.69;;;12.16;91.18
65157;BME280;52745;49.794;18.258;2023-05-25T08:41:55;-16260.72;;;12.12;90.70
65157;BME280;52745;49.794;18.258;2023-05-25T08:44:22;-16265.63;;;12.31;90.87
65157;BME280;52745;49.794;18.258;2023-05-25T08:46:49;-16273.41;;;12.60;90.86
65157;BME280;52745;49.794;18.258;2023-05-25T08:49:16;-16265.22;;;12.29;90.07
65157;BME280;52745;49.794;18.258;2023-05-25T08:51:51;-16265.91;;;12.32;90.49
65157;BME280;52745;49.794;18.258;2023-05-25T08:54:20;-16260.72;;;12.12;91.24
65157;BME280;52745;49.794;18.258;2023-05-25T08:56:51;-16258.53;;;12.04;92.65
65157;BME280;52745;49.794;18.258;2023-05-25T09:01:57;-16262.38;;;12.18;91.97
65157;BME280;52745;49.794;18.258;2023-05-25T09:04:28;-16267.00;;;12.36;92.96
65157;BME280;52745;49.794;18.258;2023-05-25T09:06:55;-16274.88;;;12.66;93.28
65157;BME280;52745;49.794;18.258;2023-05-25T09:09:23;-16272.84;;;12.58;90.68
65157;BME280;52745;49.794;18.258;2023-05-25T09:11:50;-16272.31;;;12.56;91.64
65157;BME280;52745;49.794;18.258;2023-05-25T09:14:18;-16273.66;;;12.61;90.16
65157;BME280;52745;49.794;18.258;2023-05-25T09:16:45;-16265.34;;;12.30;91.48
65157;BME280;52745;49.794;18.258;2023-05-25T09:19:12;-16264.28;;;12.26;91.83
65157;BME280;52745;49.794;18.258;2023-05-25T09:21:39;-16265.09;;;12.29;92.18
65157;BME280;52745;49.794;18.258;2023-05-25T09:24:06;-16267.94;;;12.39;92.44
65157;BME280;52745;49.794;18.258;2023-05-25T09:26:33;-16271.09;;;12.51;91.88
65157;BME280;52745;49.794;18.258;2023-05-25T09:29:00;-16270.25;;;12.48;92.41
65157;BME280;52745;49.794;18.258;2023-05-25T09:31:27;-16269.59;;;12.46;92.93
65157;BME280;52745;49.794;18.258;2023-05-25T09:33:53;-16274.63;;;12.65;93.56
65157;BME280;52745;49.794;18.258;2023-05-25T09:36:25;-16279.94;;;12.84;91.61
65157;BME280;52745;49.794;18.258;2023-05-25T09:38:53;-16284.69;;;13.02;89.77
65157;BME280;52745;49.794;18.258;2023-05-25T09:41:20;-16281.97;;;12.92;89.02
65157;BME280;52745;49.794;18.258;2023-05-25T09:43:47;-16280.47;;;12.87;90.47
65157;BME280;52745;49.794;18.258;2023-05-25T09:46:14;-16282.09;;;12.93;89.91
65157;BME280;52745;49.794;18.258;2023-05-25T09:48:40;-16275.16;;;12.67;91.51
65157;BME280;52745;49.794;18.258;2023-05-25T09:51:08;-16270.25;;;12.48;92.64
65157;BME280;52745;49.794;18.258;2023-05-25T09:53:36;-16271.75;;;12.54;93.15
65157;BME280;52745;49.794;18.258;2023-05-25T09:56:04;-16272.72;;;12.57;92.91
65157;BME280;52745;49.794;18.258;2023-05-25T09:58:31;-16272.44;;;12.56;93.09
65157;BME280;52745;49.794;18.258;2023-05-25T10:00:58;-16273.81;;;12.61;92.85
65157;BME280;52745;49.794;18.258;2023-05-25T10:03:25;-16276.25;;;12.71;93.08
65157;BME280;52745;49.794;18.258;2023-05-25T10:05:53;-16272.16;;;12.55;93.40
65157;BME280;52745;49.794;18.258;2023-05-25T10:08:20;-16274.22;;;12.63;93.44
65157;BME280;52745;49.794;18.258;2023-05-25T10:10:49;-16275.44;;;12.68;93.26
65157;BME280;52745;49.794;18.258;2023-05-25T10:13:26;-16275.31;;;12.67;93.89
65157;BME280;52745;49.794;18.258;2023-05-25T10:15:56;-16276.25;;;12.71;93.36
65157;BME280;52745;49.794;18.258;2023-05-25T10:18:25;-16279.94;;;12.84;92.37
65157;BME280;52745;49.794;18.258;2023-05-25T10:21:00;-16281.97;;;12.92;92.00
65157;BME280;52745;49.794;18.258;2023-05-25T10:23:40;-16287.69;;;13.14;90.97
65157;BME280;52745;49.794;18.258;2023-05-25T10:26:13;-16293.41;;;13.35;90.53
65157;BME280;52745;49.794;18.258;2023-05-25T10:28:43;-16299.53;;;13.58;88.99
65157;BME280;52745;49.794;18.258;2023-05-25T10:31:11;-16308.66;;;13.93;89.38
65157;BME280;52745;49.794;18.258;2023-05-25T10:33:39;-16313.28;;;14.10;87.01
65157;BME280;52745;49.794;18.258;2023-05-25T10:36:06;-16310.81;;;14.01;86.65
65157;BME280;52745;49.794;18.258;2023-05-25T10:38:33;-16310.81;;;14.01;86.81
65157;BME280;52745;49.794;18.258;2023-05-25T10:41:03;-16314.09;;;14.13;86.83
65157;BME280;52745;49.794;18.258;2023-05-25T10:43:31;-16310.28;;;13.99;85.75
65157;BME280;52745;49.794;18.258;2023-05-25T10:45:58;-16310.97;;;14.01;85.83
65157;BME280;52745;49.794;18.258;2023-05-25T10:48:37;-16320.22;;;14.36;84.61
65157;BME280;52745;49.794;18.258;2023-05-25T10:51:05;-16323.06;;;14.47;85.42
65157;BME280;52745;49.794;18.258;2023-05-25T10:53:32;-16326.88;;;14.61;83.67
65157;BME280;52745;49.794;18.258;2023-05-25T10:58:26;-16318.03;;;14.28;85.10
65157;BME280;52745;49.794;18.258;2023-05-25T11:06:10;-16323.88;;;14.50;86.58
65157;BME280;52745;49.794;18.258;2023-05-25T11:08:53;-16329.19;;;14.70;84.94
65157;BME280;52745;49.794;18.258;2023-05-25T11:11:21;-16331.09;;;14.77;84.46
65157;BME280;52745;49.794;18.258;2023-05-25T11:13:51;-16321.56;;;14.41;85.44
65157;BME280;52745;49.794;18.258;2023-05-25T11:18:56;-16315.19;;;14.17;86.35
65157;BME280;52745;49.794;18.258;2023-05-25T11:24:01;-16310.16;;;13.98;87.26
65157;BME280;52745;49.794;18.258;2023-05-25T11:26:34;-16308.94;;;13.94;88.16
65157;BME280;52745;49.794;18.258;2023-05-25T11:29:11;-16303.47;;;13.73;88.35
65157;BME280;52745;49.794;18.258;2023-05-25T11:31:39;-16305.38;;;13.80;89.44
65157;BME280;52745;49.794;18.258;2023-05-25T11:34:06;-16299.41;;;13.58;89.81
65157;BME280;52745;49.794;18.258;2023-05-25T11:36:35;-16300.34;;;13.61;90.04
65157;BME280;52745;49.794;18.258;2023-05-25T11:39:05;-16297.50;;;13.51;91.71
65157;BME280;52745;49.794;18.258;2023-05-25T11:41:32;-16303.22;;;13.72;90.79
65157;BME280;52745;49.794;18.258;2023-05-25T11:44:04;-16299.81;;;13.59;90.64
65157;BME280;52745;49.794;18.258;2023-05-25T11:46:32;-16302.25;;;13.69;90.42
65157;BME280;52745;49.794;18.258;2023-05-25T11:49:00;-16303.22;;;13.72;90.56
65157;BME280;52745;49.794;18.258;2023-05-25T11:51:29;-16304.72;;;13.78;90.88
65157;BME280;52745;49.794;18.258;2023-05-25T11:53:55;-16312.47;;;14.07;91.15
65157;BME280;52745;49.794;18.258;2023-05-25T11:56:22;-16320.34;;;14.37;89.04
65157;BME280;52745;49.794;18.258;2023-05-25T11:58:49;-16319.81;;;14.35;86.43
65157;BME280;52745;49.794;18.258;2023-05-25T12:01:17;-16313.56;;;14.11;87.04
65157;BME280;52745;49.794;18.258;2023-05-25T12:03:49;-16308.25;;;13.91;88.52
65157;BME280;52745;49.794;18.258;2023-05-25T12:06:30;-16314.09;;;14.13;89.35
65157;BME280;52745;49.794;18.258;2023-05-25T12:08:59;-16310.00;;;13.98;88.35
65157;BME280;52745;49.794;18.258;2023-05-25T12:11:32;-16309.06;;;13.94;89.19
65157;BME280;52745;49.794;18.258;2023-05-25T12:14:00;-16307.28;;;13.87;89.08
65157;BME280;52745;49.794;18.258;2023-05-25T12:16:29;-16306.19;;;13.83;89.20
65157;BME280;52745;49.794;18.258;2023-05-25T12:18:56;-16305.94;;;13.82;89.10
65157;BME280;52745;49.794;18.258;2023-05-25T12:21:24;-16302.13;;;13.68;90.21
65157;BME280;52745;49.794;18.258;2023-05-25T12:23:52;-16307.16;;;13.87;89.84
65157;BME280;52745;49.794;18.258;2023-05-25T12:26:20;-16310.97;;;14.01;90.88
65157;BME280;52745;49.794;18.258;2023-05-25T12:29:04;-16310.00;;;13.98;89.83
65157;BME280;52745;49.794;18.258;2023-05-25T12:31:35;-16306.06;;;13.83;90.06
65157;BME280;52745;49.794;18.258;2023-05-25T12:34:12;-16307.03;;;13.86;90.58
65157;BME280;52745;49.794;18.258;2023-05-25T12:39:07;-16319.81;;;14.35;90.44
65157;BME280;52745;49.794;18.258;2023-05-25T12:42:01;-16327.28;;;14.63;89.29
65157;BME280;52745;49.794;18.258;2023-05-25T12:44:34;-16330.00;;;14.73;88.33
65157;BME280;52745;49.794;18.258;2023-05-25T12:49:43;-16333.00;;;14.84;87.25
65157;BME280;52745;49.794;18.258;2023-05-25T12:52:30;-16321.72;;;14.42;87.27
65157;BME280;52745;49.794;18.258;2023-05-25T12:54:57;-16319.00;;;14.32;88.67
65157;BME280;52745;49.794;18.258;2023-05-25T12:57:33;-16322.53;;;14.45;88.72
65157;BME280;52745;49.794;18.258;2023-05-25T13:00:03;-16321.31;;;14.40;88.53
65157;BME280;52745;49.794;18.258;2023-05-25T13:02:31;-16327.16;;;14.62;89.27
65157;BME280;52745;49.794;18.258;2023-05-25T13:04:58;-16327.69;;;14.64;87.34
65157;BME280;52745;49.794;18.258;2023-05-25T13:07:25;-16328.78;;;14.68;89.29